sensor_id;sensor_type;location;lat;lon;timestamp;P1;durP1;ratioP1;P2;durP2;ratioP2
71606;SDS011;60641;53.556;9.914;2022-10-31T00:00:26;24.20;;;9.60;;
71606;SDS011;60641;53.556;9.914;2022-10-31T00:03:13;19.70;;;9.70;;
71606;SDS011;60641;53.556;9.914;2022-10-31T00:05:40;20.70;;;9.70;;
71606;SDS011;60641;53.556;9.914;2022-10-31T00:08:07;21.30;;;9.80;;
71606;SDS011;60641;53.556;9.914;2022-10-31T00:10:36;26.60;;;10.80;;
71606;SDS011;60641;53.556;9.914;2022-10-31T00:13:03;19.40;;;9.40;;
71606;SDS011;60641;53.556;9.914;2022-10-31T00:15:30;25.70;;;10.40;;
71606;SDS011;60641;53.556;9.914;2022-10-31T00:17:56;23.30;;;10.40;;
71606;SDS011;60641;53.556;9.914;2022-10-31T00:20:24;18.40;;;9.90;;
71606;SDS011;60641;53.556;9.914;2022-10-31T00:22:50;20.60;;;10.00;;
71606;SDS011;60641;53.556;9.914;2022-10-31T00:25:17;20.80;;;10.30;;
71606;SDS011;60641;53.556;9.914;2022-10-31T00:27:43;26.30;;;10.20;;
71606;SDS011;60641;53.556;9.914;2022-10-31T00:30:09;22.20;;;9.80;;
71606;SDS011;60641;53.556;9.914;2022-10-31T00:32:36;20.60;;;10.30;;
71606;SDS011;60641;53.556;9.914;2022-10-31T00:35:02;22.10;;;10.70;;
71606;SDS011;60641;53.556;9.914;2022-10-31T00:37:29;22.30;;;10.50;;
71606;SDS011;60641;53.556;9.914;2022-10-31T00:39:55;20.80;;;10.20;;
71606;SDS011;60641;53.556;9.914;2022-10-31T00:42:21;24.00;;;10.90;;
71606;SDS011;60641;53.556;9.914;2022-10-31T00:44:48;18.60;;;9.90;;
71606;SDS011;60641;53.556;9.914;2022-10-31T00:47:14;20.30;;;10.30;;
71606;SDS011;60641;53.556;9.914;2022-10-31T00:49:41;21.30;;;10.70;;
71606;SDS011;60641;53.556;9.914;2022-10-31T00:52:07;22.30;;;9.80;;
71606;SDS011;60641;53.556;9.914;2022-10-31T00:54:34;23.20;;;10.20;;
71606;SDS011;60641;53.556;9.914;2022-10-31T00:57:00;21.60;;;10.90;;
71606;SDS011;60641;53.556;9.914;2022-10-31T00:59:26;23.20;;;10.40;;
71606;SDS011;60641;53.556;9.914;2022-10-31T01:01:53;22.50;;;10.00;;
71606;SDS011;60641;53.556;9.914;2022-10-31T01:04:19;19.20;;;9.90;;
71606;SDS011;60641;53.556;9.914;2022-10-31T01:06:45;25.30;;;10.50;;
71606;SDS011;60641;53.556;9.914;2022-10-31T01:09:12;19.10;;;9.90;;
71606;SDS011;60641;53.556;9.914;2022-10-31T01:11:38;21.90;;;10.60;;
71606;SDS011;60641;53.556;9.914;2022-10-31T01:14:04;20.40;;;9.80;;
71606;SDS011;60641;53.556;9.914;2022-10-31T01:16:30;20.20;;;10.20;;
71606;SDS011;60641;53.556;9.914;2022-10-31T01:18:57;22.00;;;10.70;;
71606;SDS011;60641;53.556;9.914;2022-10-31T01:21:25;20.70;;;10.50;;
71606;SDS011;60641;53.556;9.914;2022-10-31T01:23:53;23.10;;;10.90;;
71606;SDS011;60641;53.556;9.914;2022-10-31T01:26:21;22.80;;;11.00;;
71606;SDS011;60641;53.556;9.914;2022-10-31T01:28:53;25.60;;;11.20;;
71606;SDS011;60641;53.556;9.914;2022-10-31T01:31:22;21.90;;;11.10;;
71606;SDS011;60641;53.556;9.914;2022-10-31T01:33:49;22.40;;;11.30;;
71606;SDS011;60641;53.556;9.914;2022-10-31T01:36:17;27.10;;;11.70;;
71606;SDS011;60641;53.556;9.914;2022-10-31T01:38:45;22.90;;;11.30;;
71606;SDS011;60641;53.556;9.914;2022-10-31T01:41:14;21.60;;;11.70;;
71606;SDS011;60641;53.556;9.914;2022-10-31T01:43:59;21.60;;;11.80;;
71606;SDS011;60641;53.556;9.914;2022-10-31T01:46:47;21.60;;;11.80;;
71606;SDS011;60641;53.556;9.914;2022-10-31T01:49:21;22.70;;;11.10;;
71606;SDS011;60641;53.556;9.914;2022-10-31T01:51:51;23.20;;;12.20;;
71606;SDS011;60641;53.556;9.914;2022-10-31T01:54:43;24.30;;;11.90;;
71606;SDS011;60641;53.556;9.914;2022-10-31T01:57:12;23.40;;;11.90;;
71606;SDS011;60641;53.556;9.914;2022-10-31T01:59:43;25.30;;;12.30;;
71606;SDS011;60641;53.556;9.914;2022-10-31T02:02:13;23.40;;;11.70;;
71606;SDS011;60641;53.556;9.914;2022-10-31T02:04:41;24.60;;;12.10;;
71606;SDS011;60641;53.556;9.914;2022-10-31T02:07:15;23.30;;;12.80;;
71606;SDS011;60641;53.556;9.914;2022-10-31T02:09:44;26.90;;;12.60;;
71606;SDS011;60641;53.556;9.914;2022-10-31T02:12:12;21.90;;;11.60;;
71606;SDS011;60641;53.556;9.914;2022-10-31T02:14:38;23.80;;;12.40;;
71606;SDS011;60641;53.556;9.914;2022-10-31T02:17:05;24.60;;;12.60;;
71606;SDS011;60641;53.556;9.914;2022-10-31T02:19:39;25.40;;;12.90;;
71606;SDS011;60641;53.556;9.914;2022-10-31T02:23:00;29.50;;;12.90;;
71606;SDS011;60641;53.556;9.914;2022-10-31T02:25:32;23.80;;;12.00;;
71606;SDS011;60641;53.556;9.914;2022-10-31T02:33:52;24.30;;;12.60;;
71606;SDS011;60641;53.556;9.914;2022-10-31T02:39:07;23.00;;;12.20;;
71606;SDS011;60641;53.556;9.914;2022-10-31T02:47:39;30.20;;;13.60;;
71606;SDS011;60641;53.556;9.914;2022-10-31T02:50:21;27.20;;;13.30;;
71606;SDS011;60641;53.556;9.914;2022-10-31T02:52:50;24.20;;;12.50;;
71606;SDS011;60641;53.556;9.914;2022-10-31T02:57:51;24.70;;;12.60;;
71606;SDS011;60641;53.556;9.914;2022-10-31T03:00:19;26.00;;;12.90;;
71606;SDS011;60641;53.556;9.914;2022-10-31T03:02:54;29.90;;;13.60;;
71606;SDS011;60641;53.556;9.914;2022-10-31T03:08:03;27.70;;;13.40;;
71606;SDS011;60641;53.556;9.914;2022-10-31T03:15:44;23.10;;;12.50;;
71606;SDS011;60641;53.556;9.914;2022-10-31T03:18:17;26.80;;;12.60;;
71606;SDS011;60641;53.556;9.914;2022-10-31T03:20:55;24.20;;;12.00;;
71606;SDS011;60641;53.556;9.914;2022-10-31T03:23:25;27.90;;;12.90;;
71606;SDS011;60641;53.556;9.914;2022-10-31T03:25:52;24.00;;;12.90;;
71606;SDS011;60641;53.556;9.914;2022-10-31T03:28:22;24.30;;;13.10;;
71606;SDS011;60641;53.556;9.914;2022-10-31T03:30:50;24.30;;;12.90;;
71606;SDS011;60641;53.556;9.914;2022-10-31T03:33:20;24.70;;;12.60;;
71606;SDS011;60641;53.556;9.914;2022-10-31T03:35:50;21.40;;;12.00;;
71606;SDS011;60641;53.556;9.914;2022-10-31T03:38:19;23.90;;;13.20;;
71606;SDS011;60641;53.556;9.914;2022-10-31T03:40:46;25.70;;;12.50;;
71606;SDS011;60641;53.556;9.914;2022-10-31T03:43:14;24.50;;;12.20;;
71606;SDS011;60641;53.556;9.914;2022-10-31T03:45:44;25.30;;;13.70;;
71606;SDS011;60641;53.556;9.914;2022-10-31T03:48:12;26.70;;;12.80;;
71606;SDS011;60641;53.556;9.914;2022-10-31T03:50:43;24.30;;;12.80;;
71606;SDS011;60641;53.556;9.914;2022-10-31T03:53:25;27.10;;;13.60;;
71606;SDS011;60641;53.556;9.914;2022-10-31T03:55:58;23.50;;;12.70;;
71606;SDS011;60641;53.556;9.914;2022-10-31T03:58:28;26.20;;;13.10;;
71606;SDS011;60641;53.556;9.914;2022-10-31T04:00:57;27.90;;;13.40;;
71606;SDS011;60641;53.556;9.914;2022-10-31T04:03:31;26.00;;;13.10;;
71606;SDS011;60641;53.556;9.914;2022-10-31T04:06:01;24.10;;;13.20;;
71606;SDS011;60641;53.556;9.914;2022-10-31T04:08:31;25.00;;;13.80;;
71606;SDS011;60641;53.556;9.914;2022-10-31T04:10:59;23.90;;;12.50;;
71606;SDS011;60641;53.556;9.914;2022-10-31T04:13:27;28.20;;;13.40;;
71606;SDS011;60641;53.556;9.914;2022-10-31T04:15:54;28.10;;;13.20;;
71606;SDS011;60641;53.556;9.914;2022-10-31T04:18:22;30.70;;;13.40;;
71606;SDS011;60641;53.556;9.914;2022-10-31T04:20:58;25.90;;;13.10;;
71606;SDS011;60641;53.556;9.914;2022-10-31T04:23:26;22.70;;;13.40;;
71606;SDS011;60641;53.556;9.914;2022-10-31T04:25:53;27.30;;;13.50;;
71606;SDS011;60641;53.556;9.914;2022-10-31T04:28:19;27.70;;;14.30;;
71606;SDS011;60641;53.556;9.914;2022-10-31T04:30:46;32.40;;;14.40;;
71606;SDS011;60641;53.556;9.914;2022-10-31T04:33:13;31.80;;;14.50;;
71606;SDS011;60641;53.556;9.914;2022-10-31T04:35:40;26.30;;;13.50;;
71606;SDS011;60641;53.556;9.914;2022-10-31T04:38:06;26.90;;;13.90;;
71606;SDS011;60641;53.556;9.914;2022-10-31T04:40:33;30.20;;;14.40;;
71606;SDS011;60641;53.556;9.914;2022-10-31T04:42:59;27.50;;;14.40;;
71606;SDS011;60641;53.556;9.914;2022-10-31T04:45:25;30.80;;;15.20;;
71606;SDS011;60641;53.556;9.914;2022-10-31T04:47:52;31.10;;;15.90;;
71606;SDS011;60641;53.556;9.914;2022-10-31T04:50:18;29.10;;;15.10;;
71606;SDS011;60641;53.556;9.914;2022-10-31T04:52:45;32.80;;;15.80;;
71606;SDS011;60641;53.556;9.914;2022-10-31T04:55:12;31.80;;;15.20;;
71606;SDS011;60641;53.556;9.914;2022-10-31T04:57:40;33.00;;;14.80;;
71606;SDS011;60641;53.556;9.914;2022-10-31T05:00:07;27.20;;;14.00;;
71606;SDS011;60641;53.556;9.914;2022-10-31T05:02:41;29.30;;;13.70;;
71606;SDS011;60641;53.556;9.914;2022-10-31T05:05:09;30.50;;;15.80;;
71606;SDS011;60641;53.556;9.914;2022-10-31T05:07:39;27.10;;;15.70;;
71606;SDS011;60641;53.556;9.914;2022-10-31T05:10:09;30.10;;;15.90;;
71606;SDS011;60641;53.556;9.914;2022-10-31T05:12:37;29.10;;;14.70;;
71606;SDS011;60641;53.556;9.914;2022-10-31T05:15:04;26.50;;;14.80;;
71606;SDS011;60641;53.556;9.914;2022-10-31T05:17:31;31.00;;;15.20;;
71606;SDS011;60641;53.556;9.914;2022-10-31T05:19:58;29.10;;;15.80;;
71606;SDS011;60641;53.556;9.914;2022-10-31T05:22:24;28.10;;;14.80;;
71606;SDS011;60641;53.556;9.914;2022-10-31T05:24:50;28.10;;;14.50;;
71606;SDS011;60641;53.556;9.914;2022-10-31T05:27:17;28.90;;;14.80;;
71606;SDS011;60641;53.556;9.914;2022-10-31T05:29:43;30.40;;;14.90;;
71606;SDS011;60641;53.556;9.914;2022-10-31T05:32:09;29.20;;;14.70;;
71606;SDS011;60641;53.556;9.914;2022-10-31T05:34:36;29.50;;;15.30;;
71606;SDS011;60641;53.556;9.914;2022-10-31T05:37:02;27.90;;;14.90;;
71606;SDS011;60641;53.556;9.914;2022-10-31T05:39:28;32.30;;;15.20;;
71606;SDS011;60641;53.556;9.914;2022-10-31T05:41:55;29.40;;;16.50;;
71606;SDS011;60641;53.556;9.914;2022-10-31T05:44:21;29.00;;;15.50;;
71606;SDS011;60641;53.556;9.914;2022-10-31T05:46:48;27.10;;;14.60;;
71606;SDS011;60641;53.556;9.914;2022-10-31T05:49:14;28.40;;;15.30;;
71606;SDS011;60641;53.556;9.914;2022-10-31T05:51:41;28.50;;;15.10;;
71606;SDS011;60641;53.556;9.914;2022-10-31T05:54:07;29.10;;;14.70;;
71606;SDS011;60641;53.556;9.914;2022-10-31T05:56:33;27.90;;;14.40;;
71606;SDS011;60641;53.556;9.914;2022-10-31T05:59:00;27.30;;;14.40;;
71606;SDS011;60641;53.556;9.914;2022-10-31T06:01:26;24.30;;;14.20;;
71606;SDS011;60641;53.556;9.914;2022-10-31T06:03:53;26.90;;;14.80;;
71606;SDS011;60641;53.556;9.914;2022-10-31T06:06:19;24.40;;;14.00;;
71606;SDS011;60641;53.556;9.914;2022-10-31T06:08:45;25.50;;;14.20;;
71606;SDS011;60641;53.556;9.914;2022-10-31T06:11:12;22.50;;;13.30;;
71606;SDS011;60641;53.556;9.914;2022-10-31T06:13:38;27.00;;;14.10;;
71606;SDS011;60641;53.556;9.914;2022-10-31T06:16:04;22.50;;;13.10;;
71606;SDS011;60641;53.556;9.914;2022-10-31T06:18:31;24.20;;;13.10;;
71606;SDS011;60641;53.556;9.914;2022-10-31T06:20:57;24.90;;;13.50;;
71606;SDS011;60641;53.556;9.914;2022-10-31T06:23:23;20.60;;;12.10;;
71606;SDS011;60641;53.556;9.914;2022-10-31T06:25:50;23.00;;;12.90;;
71606;SDS011;60641;53.556;9.914;2022-10-31T06:28:16;22.80;;;12.50;;
71606;SDS011;60641;53.556;9.914;2022-10-31T06:30:43;23.00;;;13.40;;
71606;SDS011;60641;53.556;9.914;2022-10-31T06:33:10;19.90;;;12.30;;
71606;SDS011;60641;53.556;9.914;2022-10-31T06:35:36;21.70;;;12.40;;
71606;SDS011;60641;53.556;9.914;2022-10-31T06:38:03;20.90;;;12.30;;
71606;SDS011;60641;53.556;9.914;2022-10-31T06:40:29;22.40;;;13.20;;
71606;SDS011;60641;53.556;9.914;2022-10-31T06:42:59;22.40;;;13.20;;
71606;SDS011;60641;53.556;9.914;2022-10-31T06:45:26;20.60;;;12.20;;
71606;SDS011;60641;53.556;9.914;2022-10-31T06:47:53;19.80;;;12.50;;
71606;SDS011;60641;53.556;9.914;2022-10-31T06:50:20;18.80;;;11.10;;
71606;SDS011;60641;53.556;9.914;2022-10-31T06:52:52;18.00;;;11.10;;
71606;SDS011;60641;53.556;9.914;2022-10-31T06:55:20;17.70;;;10.70;;
71606;SDS011;60641;53.556;9.914;2022-10-31T06:57:54;18.00;;;10.30;;
71606;SDS011;60641;53.556;9.914;2022-10-31T07:00:22;16.60;;;10.50;;
71606;SDS011;60641;53.556;9.914;2022-10-31T07:03:00;18.60;;;9.80;;
71606;SDS011;60641;53.556;9.914;2022-10-31T07:05:28;16.60;;;9.50;;
71606;SDS011;60641;53.556;9.914;2022-10-31T07:07:56;15.60;;;9.50;;
71606;SDS011;60641;53.556;9.914;2022-10-31T07:10:27;16.30;;;10.40;;
71606;SDS011;60641;53.556;9.914;2022-10-31T07:12:58;16.30;;;10.70;;
71606;SDS011;60641;53.556;9.914;2022-10-31T07:15:26;15.30;;;9.90;;
71606;SDS011;60641;53.556;9.914;2022-10-31T07:17:53;16.50;;;10.10;;
71606;SDS011;60641;53.556;9.914;2022-10-31T07:20:20;14.20;;;9.10;;
71606;SDS011;60641;53.556;9.914;2022-10-31T07:22:46;13.90;;;9.40;;
71606;SDS011;60641;53.556;9.914;2022-10-31T07:25:13;14.00;;;8.80;;
71606;SDS011;60641;53.556;9.914;2022-10-31T07:27:41;13.40;;;8.30;;
71606;SDS011;60641;53.556;9.914;2022-10-31T07:30:09;13.90;;;8.60;;
71606;SDS011;60641;53.556;9.914;2022-10-31T07:35:10;14.40;;;8.80;;
71606;SDS011;60641;53.556;9.914;2022-10-31T07:37:38;9.90;;;9.00;;
71606;SDS011;60641;53.556;9.914;2022-10-31T07:40:04;13.90;;;8.10;;
71606;SDS011;60641;53.556;9.914;2022-10-31T07:42:38;13.50;;;8.60;;
71606;SDS011;60641;53.556;9.914;2022-10-31T07:45:06;12.10;;;7.70;;
71606;SDS011;60641;53.556;9.914;2022-10-31T07:47:38;13.00;;;8.30;;
71606;SDS011;60641;53.556;9.914;2022-10-31T07:50:05;13.50;;;8.90;;
71606;SDS011;60641;53.556;9.914;2022-10-31T07:52:32;12.60;;;8.10;;
71606;SDS011;60641;53.556;9.914;2022-10-31T07:54:59;12.90;;;8.60;;
71606;SDS011;60641;53.556;9.914;2022-10-31T07:57:25;13.20;;;8.50;;
71606;SDS011;60641;53.556;9.914;2022-10-31T07:59:51;13.40;;;8.50;;
71606;SDS011;60641;53.556;9.914;2022-10-31T08:02:18;14.80;;;9.50;;
71606;SDS011;60641;53.556;9.914;2022-10-31T08:04:44;14.20;;;8.70;;
71606;SDS011;60641;53.556;9.914;2022-10-31T08:07:10;16.20;;;9.90;;
71606;SDS011;60641;53.556;9.914;2022-10-31T08:09:37;16.40;;;10.20;;
71606;SDS011;60641;53.556;9.914;2022-10-31T08:12:03;11.10;;;4.30;;
71606;SDS011;60641;53.556;9.914;2022-10-31T08:14:30;15.00;;;8.60;;
71606;SDS011;60641;53.556;9.914;2022-10-31T08:16:56;12.70;;;7.90;;
71606;SDS011;60641;53.556;9.914;2022-10-31T08:19:23;14.20;;;7.90;;
71606;SDS011;60641;53.556;9.914;2022-10-31T08:21:52;14.10;;;8.30;;
71606;SDS011;60641;53.556;9.914;2022-10-31T08:24:21;14.80;;;8.70;;
71606;SDS011;60641;53.556;9.914;2022-10-31T08:26:48;13.30;;;8.20;;
71606;SDS011;60641;53.556;9.914;2022-10-31T08:29:16;13.70;;;8.40;;
71606;SDS011;60641;53.556;9.914;2022-10-31T08:31:43;13.30;;;8.30;;
71606;SDS011;60641;53.556;9.914;2022-10-31T08:34:09;14.90;;;8.10;;
71606;SDS011;60641;53.556;9.914;2022-10-31T08:36:35;16.20;;;9.40;;
71606;SDS011;60641;53.556;9.914;2022-10-31T08:39:02;15.00;;;9.10;;
71606;SDS011;60641;53.556;9.914;2022-10-31T08:41:29;15.20;;;8.80;;
71606;SDS011;60641;53.556;9.914;2022-10-31T08:43:55;16.90;;;9.20;;
71606;SDS011;60641;53.556;9.914;2022-10-31T08:46:22;15.70;;;9.30;;
71606;SDS011;60641;53.556;9.914;2022-10-31T08:48:49;15.10;;;8.80;;
71606;SDS011;60641;53.556;9.914;2022-10-31T08:51:15;14.00;;;8.80;;
71606;SDS011;60641;53.556;9.914;2022-10-31T08:53:41;15.40;;;8.90;;
71606;SDS011;60641;53.556;9.914;2022-10-31T08:56:08;16.30;;;10.10;;
71606;SDS011;60641;53.556;9.914;2022-10-31T08:58:34;18.30;;;10.60;;
71606;SDS011;60641;53.556;9.914;2022-10-31T09:01:01;14.60;;;8.90;;
71606;SDS011;60641;53.556;9.914;2022-10-31T09:03:28;15.90;;;9.30;;
71606;SDS011;60641;53.556;9.914;2022-10-31T09:05:56;13.90;;;8.20;;
71606;SDS011;60641;53.556;9.914;2022-10-31T09:08:24;13.30;;;8.10;;
71606;SDS011;60641;53.556;9.914;2022-10-31T09:10:51;12.90;;;7.70;;
71606;SDS011;60641;53.556;9.914;2022-10-31T09:13:18;14.00;;;8.20;;
71606;SDS011;60641;53.556;9.914;2022-10-31T09:15:46;13.60;;;8.10;;
71606;SDS011;60641;53.556;9.914;2022-10-31T09:18:15;15.40;;;8.50;;
71606;SDS011;60641;53.556;9.914;2022-10-31T09:20:44;13.30;;;7.90;;
71606;SDS011;60641;53.556;9.914;2022-10-31T09:25:45;13.20;;;8.20;;
71606;SDS011;60641;53.556;9.914;2022-10-31T09:28:14;14.00;;;8.10;;
71606;SDS011;60641;53.556;9.914;2022-10-31T09:30:42;14.10;;;8.50;;
71606;SDS011;60641;53.556;9.914;2022-10-31T09:33:09;14.20;;;8.60;;
71606;SDS011;60641;53.556;9.914;2022-10-31T09:35:37;15.40;;;9.10;;
71606;SDS011;60641;53.556;9.914;2022-10-31T09:38:05;16.60;;;9.60;;
71606;SDS011;60641;53.556;9.914;2022-10-31T09:40:34;15.80;;;9.70;;
71606;SDS011;60641;53.556;9.914;2022-10-31T09:45:56;18.10;;;10.00;;
71606;SDS011;60641;53.556;9.914;2022-10-31T09:48:37;16.40;;;10.50;;
71606;SDS011;60641;53.556;9.914;2022-10-31T09:51:12;17.30;;;10.10;;
71606;SDS011;60641;53.556;9.914;2022-10-31T09:56:21;22.80;;;12.20;;
71606;SDS011;60641;53.556;9.914;2022-10-31T09:58:53;21.20;;;12.80;;
71606;SDS011;60641;53.556;9.914;2022-10-31T10:04:17;23.00;;;13.10;;
71606;SDS011;60641;53.556;9.914;2022-10-31T10:06:51;24.50;;;12.40;;
71606;SDS011;60641;53.556;9.914;2022-10-31T10:09:19;22.80;;;12.70;;
71606;SDS011;60641;53.556;9.914;2022-10-31T10:20:05;23.10;;;12.30;;
71606;SDS011;60641;53.556;9.914;2022-10-31T10:25:44;24.00;;;12.60;;
71606;SDS011;60641;53.556;9.914;2022-10-31T10:30:44;24.10;;;12.80;;
71606;SDS011;60641;53.556;9.914;2022-10-31T10:33:14;22.50;;;12.70;;
71606;SDS011;60641;53.556;9.914;2022-10-31T10:35:49;24.90;;;13.30;;
71606;SDS011;60641;53.556;9.914;2022-10-31T10:38:28;25.60;;;12.60;;
71606;SDS011;60641;53.556;9.914;2022-10-31T10:40:59;25.50;;;12.30;;
71606;SDS011;60641;53.556;9.914;2022-10-31T10:43:38;22.60;;;12.40;;
71606;SDS011;60641;53.556;9.914;2022-10-31T10:51:38;27.20;;;13.90;;
71606;SDS011;60641;53.556;9.914;2022-10-31T10:59:47;25.60;;;13.80;;
71606;SDS011;60641;53.556;9.914;2022-10-31T11:02:18;28.10;;;14.90;;
71606;SDS011;60641;53.556;9.914;2022-10-31T11:04:57;31.10;;;15.10;;
71606;SDS011;60641;53.556;9.914;2022-10-31T11:07:26;30.10;;;15.40;;
71606;SDS011;60641;53.556;9.914;2022-10-31T11:10:04;30.90;;;15.50;;
71606;SDS011;60641;53.556;9.914;2022-10-31T11:12:32;30.30;;;15.50;;
71606;SDS011;60641;53.556;9.914;2022-10-31T11:15:02;28.20;;;14.50;;
71606;SDS011;60641;53.556;9.914;2022-10-31T11:17:37;28.70;;;14.40;;
71606;SDS011;60641;53.556;9.914;2022-10-31T11:22:31;31.50;;;14.60;;
71606;SDS011;60641;53.556;9.914;2022-10-31T11:24:58;28.30;;;15.30;;
71606;SDS011;60641;53.556;9.914;2022-10-31T11:27:25;30.90;;;15.80;;
71606;SDS011;60641;53.556;9.914;2022-10-31T11:29:51;29.60;;;15.90;;
71606;SDS011;60641;53.556;9.914;2022-10-31T11:32:27;34.20;;;16.30;;
71606;SDS011;60641;53.556;9.914;2022-10-31T11:34:57;32.50;;;15.70;;
71606;SDS011;60641;53.556;9.914;2022-10-31T11:37:25;31.80;;;15.10;;
71606;SDS011;60641;53.556;9.914;2022-10-31T11:39:55;30.40;;;15.70;;
71606;SDS011;60641;53.556;9.914;2022-10-31T11:42:29;33.10;;;16.10;;
71606;SDS011;60641;53.556;9.914;2022-10-31T11:45:06;40.00;;;18.40;;
71606;SDS011;60641;53.556;9.914;2022-10-31T11:47:41;32.10;;;16.00;;
71606;SDS011;60641;53.556;9.914;2022-10-31T11:50:24;33.90;;;16.90;;
71606;SDS011;60641;53.556;9.914;2022-10-31T11:52:54;34.90;;;17.10;;
71606;SDS011;60641;53.556;9.914;2022-10-31T11:55:31;35.20;;;16.90;;
71606;SDS011;60641;53.556;9.914;2022-10-31T11:57:59;35.10;;;17.90;;
71606;SDS011;60641;53.556;9.914;2022-10-31T12:03:12;35.90;;;16.90;;
71606;SDS011;60641;53.556;9.914;2022-10-31T12:05:42;35.80;;;18.00;;
71606;SDS011;60641;53.556;9.914;2022-10-31T12:08:11;29.90;;;15.80;;
71606;SDS011;60641;53.556;9.914;2022-10-31T12:10:59;32.30;;;18.10;;
71606;SDS011;60641;53.556;9.914;2022-10-31T12:19:32;35.80;;;18.00;;
71606;SDS011;60641;53.556;9.914;2022-10-31T12:43:52;26.00;;;14.90;;
71606;SDS011;60641;53.556;9.914;2022-10-31T12:49:05;26.20;;;15.40;;
71606;SDS011;60641;53.556;9.914;2022-10-31T12:54:21;27.20;;;15.10;;
71606;SDS011;60641;53.556;9.914;2022-10-31T13:00:10;22.20;;;11.80;;
71606;SDS011;60641;53.556;9.914;2022-10-31T13:05:40;22.30;;;11.00;;
71606;SDS011;60641;53.556;9.914;2022-10-31T13:11:27;24.50;;;12.40;;
71606;SDS011;60641;53.556;9.914;2022-10-31T13:14:09;23.80;;;12.20;;
71606;SDS011;60641;53.556;9.914;2022-10-31T13:16:50;20.20;;;10.80;;
71606;SDS011;60641;53.556;9.914;2022-10-31T13:19:22;24.20;;;12.40;;
71606;SDS011;60641;53.556;9.914;2022-10-31T13:21:55;25.50;;;12.40;;
71606;SDS011;60641;53.556;9.914;2022-10-31T13:24:57;26.20;;;12.20;;
71606;SDS011;60641;53.556;9.914;2022-10-31T13:27:28;20.40;;;10.60;;
71606;SDS011;60641;53.556;9.914;2022-10-31T13:29:59;20.70;;;10.40;;
71606;SDS011;60641;53.556;9.914;2022-10-31T13:32:29;21.70;;;10.10;;
71606;SDS011;60641;53.556;9.914;2022-10-31T13:35:03;19.50;;;9.30;;
71606;SDS011;60641;53.556;9.914;2022-10-31T13:37:38;16.80;;;8.50;;
71606;SDS011;60641;53.556;9.914;2022-10-31T13:45:32;16.70;;;7.30;;
71606;SDS011;60641;53.556;9.914;2022-10-31T13:48:00;18.30;;;8.40;;
71606;SDS011;60641;53.556;9.914;2022-10-31T13:50:39;17.40;;;8.60;;
71606;SDS011;60641;53.556;9.914;2022-10-31T13:53:19;18.70;;;9.50;;
71606;SDS011;60641;53.556;9.914;2022-10-31T13:55:48;18.10;;;8.90;;
71606;SDS011;60641;53.556;9.914;2022-10-31T13:58:26;20.50;;;9.20;;
71606;SDS011;60641;53.556;9.914;2022-10-31T14:03:45;18.40;;;8.50;;
71606;SDS011;60641;53.556;9.914;2022-10-31T14:06:20;17.80;;;9.20;;
71606;SDS011;60641;53.556;9.914;2022-10-31T14:08:49;16.00;;;7.70;;
71606;SDS011;60641;53.556;9.914;2022-10-31T14:11:22;15.60;;;8.30;;
71606;SDS011;60641;53.556;9.914;2022-10-31T14:13:50;16.30;;;8.50;;
71606;SDS011;60641;53.556;9.914;2022-10-31T14:18:44;14.00;;;6.10;;
71606;SDS011;60641;53.556;9.914;2022-10-31T14:22:00;14.80;;;7.20;;
71606;SDS011;60641;53.556;9.914;2022-10-31T14:24:15;17.00;;;7.60;;
71606;SDS011;60641;53.556;9.914;2022-10-31T14:26:52;16.50;;;7.60;;
71606;SDS011;60641;53.556;9.914;2022-10-31T14:29:41;18.10;;;7.60;;
71606;SDS011;60641;53.556;9.914;2022-10-31T14:37:39;16.60;;;7.20;;
71606;SDS011;60641;53.556;9.914;2022-10-31T14:45:29;15.00;;;7.50;;
71606;SDS011;60641;53.556;9.914;2022-10-31T14:48:06;18.60;;;8.80;;
71606;SDS011;60641;53.556;9.914;2022-10-31T14:50:43;16.20;;;8.60;;
71606;SDS011;60641;53.556;9.914;2022-10-31T14:53:34;19.80;;;8.50;;
71606;SDS011;60641;53.556;9.914;2022-10-31T14:56:24;19.40;;;9.10;;
71606;SDS011;60641;53.556;9.914;2022-10-31T14:58:54;21.50;;;8.90;;
71606;SDS011;60641;53.556;9.914;2022-10-31T15:01:23;15.60;;;8.10;;
71606;SDS011;60641;53.556;9.914;2022-10-31T15:03:58;19.10;;;9.10;;
71606;SDS011;60641;53.556;9.914;2022-10-31T15:06:28;15.20;;;7.90;;
71606;SDS011;60641;53.556;9.914;2022-10-31T15:08:57;18.30;;;8.40;;
71606;SDS011;60641;53.556;9.914;2022-10-31T15:11:24;19.30;;;8.90;;
71606;SDS011;60641;53.556;9.914;2022-10-31T15:13:53;17.50;;;8.90;;
71606;SDS011;60641;53.556;9.914;2022-10-31T15:19:14;17.60;;;8.60;;
71606;SDS011;60641;53.556;9.914;2022-10-31T15:21:43;20.10;;;8.90;;
71606;SDS011;60641;53.556;9.914;2022-10-31T15:24:14;17.30;;;8.20;;
71606;SDS011;60641;53.556;9.914;2022-10-31T15:26:43;17.40;;;8.50;;
71606;SDS011;60641;53.556;9.914;2022-10-31T15:29:12;17.00;;;8.20;;
71606;SDS011;60641;53.556;9.914;2022-10-31T15:31:53;19.40;;;8.70;;
71606;SDS011;60641;53.556;9.914;2022-10-31T15:34:22;16.00;;;6.90;;
71606;SDS011;60641;53.556;9.914;2022-10-31T15:36:51;15.90;;;7.50;;
71606;SDS011;60641;53.556;9.914;2022-10-31T15:39:17;22.40;;;9.30;;
71606;SDS011;60641;53.556;9.914;2022-10-31T15:41:52;17.60;;;9.10;;
71606;SDS011;60641;53.556;9.914;2022-10-31T15:46:55;20.70;;;9.00;;
71606;SDS011;60641;53.556;9.914;2022-10-31T15:55:00;15.40;;;6.90;;
71606;SDS011;60641;53.556;9.914;2022-10-31T15:57:29;22.00;;;10.70;;
71606;SDS011;60641;53.556;9.914;2022-10-31T15:59:56;19.00;;;7.70;;
71606;SDS011;60641;53.556;9.914;2022-10-31T16:02:24;21.10;;;9.70;;
71606;SDS011;60641;53.556;9.914;2022-10-31T16:04:56;22.20;;;10.20;;
71606;SDS011;60641;53.556;9.914;2022-10-31T16:07:24;21.10;;;11.00;;
71606;SDS011;60641;53.556;9.914;2022-10-31T16:12:27;22.90;;;11.10;;
71606;SDS011;60641;53.556;9.914;2022-10-31T16:14:59;18.70;;;9.40;;
71606;SDS011;60641;53.556;9.914;2022-10-31T16:17:26;21.60;;;10.20;;
71606;SDS011;60641;53.556;9.914;2022-10-31T16:19:55;19.70;;;9.50;;
71606;SDS011;60641;53.556;9.914;2022-10-31T16:22:25;17.60;;;8.40;;
71606;SDS011;60641;53.556;9.914;2022-10-31T16:27:35;20.50;;;9.80;;
71606;SDS011;60641;53.556;9.914;2022-10-31T16:30:03;19.10;;;8.70;;
71606;SDS011;60641;53.556;9.914;2022-10-31T16:32:57;20.30;;;9.60;;
71606;SDS011;60641;53.556;9.914;2022-10-31T16:35:27;20.80;;;9.30;;
71606;SDS011;60641;53.556;9.914;2022-10-31T16:38:02;21.50;;;9.30;;
71606;SDS011;60641;53.556;9.914;2022-10-31T16:40:29;20.00;;;7.20;;
71606;SDS011;60641;53.556;9.914;2022-10-31T16:42:59;18.60;;;8.30;;
71606;SDS011;60641;53.556;9.914;2022-10-31T16:45:27;16.90;;;7.40;;
71606;SDS011;60641;53.556;9.914;2022-10-31T16:48:01;17.60;;;6.70;;
71606;SDS011;60641;53.556;9.914;2022-10-31T16:50:32;18.30;;;9.00;;
71606;SDS011;60641;53.556;9.914;2022-10-31T16:52:58;20.00;;;8.20;;
71606;SDS011;60641;53.556;9.914;2022-10-31T16:55:25;20.60;;;9.50;;
71606;SDS011;60641;53.556;9.914;2022-10-31T16:57:52;21.10;;;8.70;;
71606;SDS011;60641;53.556;9.914;2022-10-31T17:00:21;19.90;;;8.50;;
71606;SDS011;60641;53.556;9.914;2022-10-31T17:02:52;20.60;;;9.20;;
71606;SDS011;60641;53.556;9.914;2022-10-31T17:05:20;19.50;;;7.90;;
71606;SDS011;60641;53.556;9.914;2022-10-31T17:07:47;24.40;;;9.90;;
71606;SDS011;60641;53.556;9.914;2022-10-31T17:10:16;18.90;;;8.20;;